sensor_id;sensor_type;location;lat;lon;timestamp;temperature;humidity
80258;DHT22;69565;37.974;23.708;2023-05-07T00:01:49;22.80;38.70
80258;DHT22;69565;37.974;23.708;2023-05-07T00:04:15;22.80;37.70
80258;DHT22;69565;37.974;23.708;2023-05-07T00:06:41;22.80;37.70
80258;DHT22;69565;37.974;23.708;2023-05-07T00:09:07;22.80;37.80
80258;DHT22;69565;37.974;23.708;2023-05-07T00:11:33;22.80;37.80
80258;DHT22;69565;37.974;23.708;2023-05-07T00:13:59;22.80;37.80
80258;DHT22;69565;37.974;23.708;2023-05-07T00:16:25;22.80;37.80
80258;DHT22;69565;37.974;23.708;2023-05-07T00:18:51;22.80;37.80
80258;DHT22;69565;37.974;23.708;2023-05-07T00:21:17;22.80;37.70
80258;DHT22;69565;37.974;23.708;2023-05-07T00:23:43;22.80;37.70
80258;DHT22;69565;37.974;23.708;2023-05-07T00:26:08;22.80;37.60
80258;DHT22;69565;37.974;23.708;2023-05-07T00:28:34;22.80;37.70
80258;DHT22;69565;37.974;23.708;2023-05-07T00:31:00;22.80;37.70
80258;DHT22;69565;37.974;23.708;2023-05-07T00:33:25;22.80;37.80
80258;DHT22;69565;37.974;23.708;2023-05-07T00:35:52;22.80;37.80
80258;DHT22;69565;37.974;23.708;2023-05-07T00:38:19;22.80;37.80
80258;DHT22;69565;37.974;23.708;2023-05-07T00:40:45;22.80;37.90
80258;DHT22;69565;37.974;23.708;2023-05-07T00:43:11;22.80;37.90
80258;DHT22;69565;37.974;23.708;2023-05-07T00:45:38;22.80;37.90
80258;DHT22;69565;37.974;23.708;2023-05-07T00:48:04;22.80;37.90
80258;DHT22;69565;37.974;23.708;2023-05-07T00:50:31;22.80;38.00
80258;DHT22;69565;37.974;23.708;2023-05-07T00:52:58;22.70;38.00
80258;DHT22;69565;37.974;23.708;2023-05-07T00:55:24;22.70;38.00
80258;DHT22;69565;37.974;23.708;2023-05-07T00:57:50;22.70;38.00
80258;DHT22;69565;37.974;23.708;2023-05-07T01:00:17;22.70;38.10
80258;DHT22;69565;37.974;23.708;2023-05-07T01:02:43;22.70;38.10
80258;DHT22;69565;37.974;23.708;2023-05-07T01:05:11;22.70;38.10
80258;DHT22;69565;37.974;23.708;2023-05-07T01:07:40;22.70;38.10
80258;DHT22;69565;37.974;23.708;2023-05-07T01:10:07;22.70;38.10
80258;DHT22;69565;37.974;23.708;2023-05-07T01:12:34;22.70;38.10
80258;DHT22;69565;37.974;23.708;2023-05-07T01:15:01;22.70;38.10
80258;DHT22;69565;37.974;23.708;2023-05-07T01:17:28;22.70;38.10
80258;DHT22;69565;37.974;23.708;2023-05-07T01:19:54;22.70;38.10
80258;DHT22;69565;37.974;23.708;2023-05-07T01:22:34;22.70;38.10
80258;DHT22;69565;37.974;23.708;2023-05-07T01:25:02;22.70;38.10
80258;DHT22;69565;37.974;23.708;2023-05-07T01:27:28;22.70;38.10
80258;DHT22;69565;37.974;23.708;2023-05-07T01:29:54;22.70;38.10
80258;DHT22;69565;37.974;23.708;2023-05-07T01:35:17;22.70;38.20
80258;DHT22;69565;37.974;23.708;2023-05-07T01:37:44;22.70;38.20
80258;DHT22;69565;37.974;23.708;2023-05-07T01:40:10;22.70;38.30
80258;DHT22;69565;37.974;23.708;2023-05-07T01:42:36;22.70;38.20
80258;DHT22;69565;37.974;23.708;2023-05-07T01:45:02;22.70;38.20
80258;DHT22;69565;37.974;23.708;2023-05-07T01:47:29;22.70;38.30
80258;DHT22;69565;37.974;23.708;2023-05-07T01:49:55;22.60;38.30
80258;DHT22;69565;37.974;23.708;2023-05-07T01:52:21;22.70;38.30
80258;DHT22;69565;37.974;23.708;2023-05-07T01:54:47;22.60;38.30
80258;DHT22;69565;37.974;23.708;2023-05-07T01:57:13;22.70;38.40
80258;DHT22;69565;37.974;23.708;2023-05-07T01:59:38;22.70;38.30
80258;DHT22;69565;37.974;23.708;2023-05-07T02:02:04;22.70;38.40
80258;DHT22;69565;37.974;23.708;2023-05-07T02:04:30;22.60;38.30
80258;DHT22;69565;37.974;23.708;2023-05-07T02:06:56;22.70;38.40
80258;DHT22;69565;37.974;23.708;2023-05-07T02:09:22;22.70;38.40
80258;DHT22;69565;37.974;23.708;2023-05-07T02:11:48;22.60;38.40
80258;DHT22;69565;37.974;23.708;2023-05-07T02:14:14;22.60;38.50
80258;DHT22;69565;37.974;23.708;2023-05-07T02:16:41;22.60;38.50
80258;DHT22;69565;37.974;23.708;2023-05-07T02:19:06;22.60;38.50
80258;DHT22;69565;37.974;23.708;2023-05-07T02:21:32;22.60;38.50
80258;DHT22;69565;37.974;23.708;2023-05-07T02:23:58;22.60;38.50
80258;DHT22;69565;37.974;23.708;2023-05-07T02:26:24;22.60;38.50
80258;DHT22;69565;37.974;23.708;2023-05-07T02:28:51;22.60;38.60
80258;DHT22;69565;37.974;23.708;2023-05-07T02:31:17;22.60;38.60
80258;DHT22;69565;37.974;23.708;2023-05-07T02:33:43;22.60;38.60
80258;DHT22;69565;37.974;23.708;2023-05-07T02:36:09;22.60;38.70
80258;DHT22;69565;37.974;23.708;2023-05-07T02:38:36;22.60;38.70
80258;DHT22;69565;37.974;23.708;2023-05-07T02:41:01;22.60;38.70
80258;DHT22;69565;37.974;23.708;2023-05-07T02:43:27;22.50;38.70
80258;DHT22;69565;37.974;23.708;2023-05-07T02:46:11;22.60;38.70
80258;DHT22;69565;37.974;23.708;2023-05-07T02:48:37;22.60;38.80
80258;DHT22;69565;37.974;23.708;2023-05-07T02:51:03;22.60;38.80
80258;DHT22;69565;37.974;23.708;2023-05-07T02:53:29;22.50;38.70
80258;DHT22;69565;37.974;23.708;2023-05-07T02:55:56;22.50;38.70
80258;DHT22;69565;37.974;23.708;2023-05-07T02:58:22;22.50;38.70
80258;DHT22;69565;37.974;23.708;2023-05-07T03:00:48;22.60;38.80
80258;DHT22;69565;37.974;23.708;2023-05-07T03:03:15;22.50;38.70
80258;DHT22;69565;37.974;23.708;2023-05-07T03:05:41;22.60;38.70
80258;DHT22;69565;37.974;23.708;2023-05-07T03:08:07;22.60;38.70
80258;DHT22;69565;37.974;23.708;2023-05-07T03:10:33;22.60;38.70
80258;DHT22;69565;37.974;23.708;2023-05-07T03:12:59;22.60;38.70
80258;DHT22;69565;37.974;23.708;2023-05-07T03:15:25;22.60;39.70
80258;DHT22;69565;37.974;23.708;2023-05-07T03:17:51;22.60;38.70
80258;DHT22;69565;37.974;23.708;2023-05-07T03:20:16;22.60;38.60
80258;DHT22;69565;37.974;23.708;2023-05-07T03:22:42;22.60;38.60
80258;DHT22;69565;37.974;23.708;2023-05-07T03:25:09;22.60;38.70
80258;DHT22;69565;37.974;23.708;2023-05-07T03:27:34;22.60;38.60
80258;DHT22;69565;37.974;23.708;2023-05-07T03:30:00;22.60;38.70
80258;DHT22;69565;37.974;23.708;2023-05-07T03:32:26;22.60;38.70
80258;DHT22;69565;37.974;23.708;2023-05-07T03:34:52;22.60;38.70
80258;DHT22;69565;37.974;23.708;2023-05-07T03:37:18;22.60;38.70
80258;DHT22;69565;37.974;23.708;2023-05-07T03:39:44;22.60;38.70
80258;DHT22;69565;37.974;23.708;2023-05-07T03:42:10;22.60;38.70
80258;DHT22;69565;37.974;23.708;2023-05-07T03:44:36;22.60;38.60
80258;DHT22;69565;37.974;23.708;2023-05-07T03:47:02;22.60;38.60
80258;DHT22;69565;37.974;23.708;2023-05-07T03:49:28;22.60;38.60
80258;DHT22;69565;37.974;23.708;2023-05-07T03:51:54;22.60;38.60
80258;DHT22;69565;37.974;23.708;2023-05-07T03:54:20;22.60;38.60
80258;DHT22;69565;37.974;23.708;2023-05-07T03:56:45;22.60;38.50
80258;DHT22;69565;37.974;23.708;2023-05-07T03:59:12;22.60;38.50
80258;DHT22;69565;37.974;23.708;2023-05-07T04:01:38;22.70;38.50
80258;DHT22;69565;37.974;23.708;2023-05-07T04:04:04;22.70;38.50
80258;DHT22;69565;37.974;23.708;2023-05-07T04:06:30;22.70;38.40
80258;DHT22;69565;37.974;23.708;2023-05-07T04:08:56;22.70;38.40
80258;DHT22;69565;37.974;23.708;2023-05-07T04:11:22;22.70;38.40
80258;DHT22;69565;37.974;23.708;2023-05-07T04:13:48;22.70;39.40
80258;DHT22;69565;37.974;23.708;2023-05-07T04:16:13;22.70;38.30
80258;DHT22;69565;37.974;23.708;2023-05-07T04:18:39;22.80;38.20
80258;DHT22;69565;37.974;23.708;2023-05-07T04:21:05;22.80;38.20
80258;DHT22;69565;37.974;23.708;2023-05-07T04:23:31;22.80;38.00
80258;DHT22;69565;37.974;23.708;2023-05-07T04:25:57;22.90;37.90
80258;DHT22;69565;37.974;23.708;2023-05-07T04:28:23;22.90;37.80
80258;DHT22;69565;37.974;23.708;2023-05-07T04:30:49;23.00;37.90
80258;DHT22;69565;37.974;23.708;2023-05-07T04:33:15;23.00;37.70
80258;DHT22;69565;37.974;23.708;2023-05-07T04:35:43;23.10;37.60
80258;DHT22;69565;37.974;23.708;2023-05-07T04:38:09;23.20;37.50
80258;DHT22;69565;37.974;23.708;2023-05-07T04:40:38;23.30;37.40
80258;DHT22;69565;37.974;23.708;2023-05-07T04:43:04;23.30;37.20
80258;DHT22;69565;37.974;23.708;2023-05-07T04:45:30;23.40;37.10
80258;DHT22;69565;37.974;23.708;2023-05-07T04:47:56;23.50;37.00
80258;DHT22;69565;37.974;23.708;2023-05-07T04:50:21;23.60;36.80
80258;DHT22;69565;37.974;23.708;2023-05-07T04:52:49;23.70;36.70
80258;DHT22;69565;37.974;23.708;2023-05-07T04:55:15;23.70;36.50
80258;DHT22;69565;37.974;23.708;2023-05-07T04:57:41;23.80;36.30
80258;DHT22;69565;37.974;23.708;2023-05-07T05:00:08;23.90;36.20
80258;DHT22;69565;37.974;23.708;2023-05-07T05:02:37;24.00;36.00
80258;DHT22;69565;37.974;23.708;2023-05-07T05:05:02;24.10;35.80
80258;DHT22;69565;37.974;23.708;2023-05-07T05:07:28;24.10;35.60
80258;DHT22;69565;37.974;23.708;2023-05-07T05:09:54;24.20;35.50
80258;DHT22;69565;37.974;23.708;2023-05-07T05:12:21;24.40;35.30
80258;DHT22;69565;37.974;23.708;2023-05-07T05:14:46;24.40;36.10
80258;DHT22;69565;37.974;23.708;2023-05-07T05:17:12;24.50;35.10
80258;DHT22;69565;37.974;23.708;2023-05-07T05:19:38;24.60;34.80
80258;DHT22;69565;37.974;23.708;2023-05-07T05:22:04;24.70;34.70
80258;DHT22;69565;37.974;23.708;2023-05-07T05:24:30;24.80;34.50
80258;DHT22;69565;37.974;23.708;2023-05-07T05:26:56;24.90;34.30
80258;DHT22;69565;37.974;23.708;2023-05-07T05:29:22;25.00;34.10
80258;DHT22;69565;37.974;23.708;2023-05-07T05:31:48;25.10;34.00
80258;DHT22;69565;37.974;23.708;2023-05-07T05:34:13;25.20;33.90
80258;DHT22;69565;37.974;23.708;2023-05-07T05:36:39;25.30;33.70
80258;DHT22;69565;37.974;23.708;2023-05-07T05:39:05;25.40;33.60
80258;DHT22;69565;37.974;23.708;2023-05-07T05:41:31;25.50;33.40
80258;DHT22;69565;37.974;23.708;2023-05-07T05:43:57;25.60;33.30
80258;DHT22;69565;37.974;23.708;2023-05-07T05:46:22;25.70;33.10
80258;DHT22;69565;37.974;23.708;2023-05-07T05:48:48;25.80;33.00
80258;DHT22;69565;37.974;23.708;2023-05-07T05:51:14;25.90;32.80
80258;DHT22;69565;37.974;23.708;2023-05-07T05:53:40;26.00;32.60
80258;DHT22;69565;37.974;23.708;2023-05-07T05:56:06;26.10;32.50
80258;DHT22;69565;37.974;23.708;2023-05-07T05:58:31;26.20;32.30
80258;DHT22;69565;37.974;23.708;2023-05-07T06:00:58;26.30;32.20
80258;DHT22;69565;37.974;23.708;2023-05-07T06:03:24;26.40;32.00
80258;DHT22;69565;37.974;23.708;2023-05-07T06:05:49;26.50;31.80
80258;DHT22;69565;37.974;23.708;2023-05-07T06:08:15;26.60;31.70
80258;DHT22;69565;37.974;23.708;2023-05-07T06:10:41;26.70;31.60
80258;DHT22;69565;37.974;23.708;2023-05-07T06:13:07;26.80;31.40
80258;DHT22;69565;37.974;23.708;2023-05-07T06:15:33;26.90;31.20
80258;DHT22;69565;37.974;23.708;2023-05-07T06:17:58;27.00;31.10
80258;DHT22;69565;37.974;23.708;2023-05-07T06:20:24;27.10;31.00
80258;DHT22;69565;37.974;23.708;2023-05-07T06:22:50;27.20;30.80
80258;DHT22;69565;37.974;23.708;2023-05-07T06:25:15;27.30;30.80
80258;DHT22;69565;37.974;23.708;2023-05-07T06:27:41;27.30;30.60
80258;DHT22;69565;37.974;23.708;2023-05-07T06:30:07;27.50;30.60
80258;DHT22;69565;37.974;23.708;2023-05-07T06:32:33;27.60;30.30
80258;DHT22;69565;37.974;23.708;2023-05-07T06:34:59;27.60;30.20
80258;DHT22;69565;37.974;23.708;2023-05-07T06:37:25;27.70;30.00
80258;DHT22;69565;37.974;23.708;2023-05-07T06:39:51;27.80;30.00
80258;DHT22;69565;37.974;23.708;2023-05-07T06:42:16;27.90;29.90
80258;DHT22;69565;37.974;23.708;2023-05-07T06:44:42;27.90;29.70
80258;DHT22;69565;37.974;23.708;2023-05-07T06:47:08;28.00;29.60
80258;DHT22;69565;37.974;23.708;2023-05-07T06:49:33;28.10;29.50
80258;DHT22;69565;37.974;23.708;2023-05-07T06:51:59;28.20;29.30
80258;DHT22;69565;37.974;23.708;2023-05-07T06:54:25;28.30;29.30
80258;DHT22;69565;37.974;23.708;2023-05-07T06:56:51;28.30;29.10
80258;DHT22;69565;37.974;23.708;2023-05-07T06:59:16;28.30;29.00
80258;DHT22;69565;37.974;23.708;2023-05-07T07:01:42;28.40;28.90
80258;DHT22;69565;37.974;23.708;2023-05-07T07:04:08;28.50;28.90
80258;DHT22;69565;37.974;23.708;2023-05-07T07:06:33;28.50;28.80
80258;DHT22;69565;37.974;23.708;2023-05-07T07:09:00;28.50;28.70
80258;DHT22;69565;37.974;23.708;2023-05-07T07:11:25;28.60;28.60
80258;DHT22;69565;37.974;23.708;2023-05-07T07:13:51;28.60;28.50
80258;DHT22;69565;37.974;23.708;2023-05-07T07:16:20;28.70;28.50
80258;DHT22;69565;37.974;23.708;2023-05-07T07:18:46;28.70;28.30
80258;DHT22;69565;37.974;23.708;2023-05-07T07:21:11;28.70;28.20
80258;DHT22;69565;37.974;23.708;2023-05-07T07:23:37;28.80;28.30
80258;DHT22;69565;37.974;23.708;2023-05-07T07:26:03;28.80;28.10
80258;DHT22;69565;37.974;23.708;2023-05-07T07:28:29;28.80;28.10
80258;DHT22;69565;37.974;23.708;2023-05-07T07:30:54;28.80;28.00
80258;DHT22;69565;37.974;23.708;2023-05-07T07:33:20;28.90;28.10
80258;DHT22;69565;37.974;23.708;2023-05-07T07:35:46;28.80;28.00
80258;DHT22;69565;37.974;23.708;2023-05-07T07:38:11;28.70;28.00
80258;DHT22;69565;37.974;23.708;2023-05-07T07:40:37;28.60;28.00
80258;DHT22;69565;37.974;23.708;2023-05-07T07:43:03;28.40;28.10
80258;DHT22;69565;37.974;23.708;2023-05-07T07:45:29;28.30;28.30
80258;DHT22;69565;37.974;23.708;2023-05-07T07:47:54;28.10;28.40
80258;DHT22;69565;37.974;23.708;2023-05-07T07:50:20;28.00;28.60
80258;DHT22;69565;37.974;23.708;2023-05-07T07:52:46;27.80;28.60
80258;DHT22;69565;37.974;23.708;2023-05-07T07:55:12;27.70;28.70
80258;DHT22;69565;37.974;23.708;2023-05-07T07:57:37;27.60;28.80
80258;DHT22;69565;37.974;23.708;2023-05-07T08:00:03;27.60;28.80
80258;DHT22;69565;37.974;23.708;2023-05-07T08:02:29;27.50;29.70
80258;DHT22;69565;37.974;23.708;2023-05-07T08:04:55;27.40;28.90
80258;DHT22;69565;37.974;23.708;2023-05-07T08:07:21;27.40;29.00
80258;DHT22;69565;37.974;23.708;2023-05-07T08:09:48;27.30;29.00
80258;DHT22;69565;37.974;23.708;2023-05-07T08:12:14;27.30;29.10
80258;DHT22;69565;37.974;23.708;2023-05-07T08:14:40;27.20;29.10
80258;DHT22;69565;37.974;23.708;2023-05-07T08:17:06;27.20;29.10
80258;DHT22;69565;37.974;23.708;2023-05-07T08:19:32;27.10;29.10
80258;DHT22;69565;37.974;23.708;2023-05-07T08:21:58;27.10;30.00
80258;DHT22;69565;37.974;23.708;2023-05-07T08:24:24;27.00;29.20
80258;DHT22;69565;37.974;23.708;2023-05-07T08:26:49;27.00;29.30
80258;DHT22;69565;37.974;23.708;2023-05-07T08:29:15;26.90;29.30
80258;DHT22;69565;37.974;23.708;2023-05-07T08:31:41;26.90;29.30
80258;DHT22;69565;37.974;23.708;2023-05-07T08:34:07;26.90;29.30
80258;DHT22;69565;37.974;23.708;2023-05-07T08:36:33;26.90;29.40
80258;DHT22;69565;37.974;23.708;2023-05-07T08:38:59;26.80;29.40
80258;DHT22;69565;37.974;23.708;2023-05-07T08:41:25;26.80;29.50
80258;DHT22;69565;37.974;23.708;2023-05-07T08:43:51;26.80;29.50
80258;DHT22;69565;37.974;23.708;2023-05-07T08:46:18;26.70;29.50
80258;DHT22;69565;37.974;23.708;2023-05-07T08:48:45;26.70;30.30
80258;DHT22;69565;37.974;23.708;2023-05-07T08:51:16;26.70;29.60
80258;DHT22;69565;37.974;23.708;2023-05-07T08:53:42;26.70;29.60
80258;DHT22;69565;37.974;23.708;2023-05-07T08:56:09;26.60;29.60
80258;DHT22;69565;37.974;23.708;2023-05-07T08:58:35;26.60;29.70
80258;DHT22;69565;37.974;23.708;2023-05-07T09:01:06;26.60;29.70
80258;DHT22;69565;37.974;23.708;2023-05-07T09:03:33;26.60;29.70
80258;DHT22;69565;37.974;23.708;2023-05-07T09:05:58;26.50;29.70
80258;DHT22;69565;37.974;23.708;2023-05-07T09:08:26;26.50;29.70
80258;DHT22;69565;37.974;23.708;2023-05-07T09:10:52;26.50;29.80
80258;DHT22;69565;37.974;23.708;2023-05-07T09:13:19;26.50;29.80
80258;DHT22;69565;37.974;23.708;2023-05-07T09:15:45;26.40;29.80
80258;DHT22;69565;37.974;23.708;2023-05-07T09:18:10;26.40;29.80
80258;DHT22;69565;37.974;23.708;2023-05-07T09:20:37;26.40;29.90
80258;DHT22;69565;37.974;23.708;2023-05-07T09:23:03;26.40;29.90
80258;DHT22;69565;37.974;23.708;2023-05-07T09:25:30;26.40;29.90
80258;DHT22;69565;37.974;23.708;2023-05-07T09:27:57;26.40;30.00
80258;DHT22;69565;37.974;23.708;2023-05-07T09:30:27;26.40;30.00
80258;DHT22;69565;37.974;23.708;2023-05-07T09:32:53;26.30;30.00
80258;DHT22;69565;37.974;23.708;2023-05-07T09:35:19;26.30;30.00
80258;DHT22;69565;37.974;23.708;2023-05-07T09:37:47;26.30;30.00
80258;DHT22;69565;37.974;23.708;2023-05-07T09:40:26;26.30;30.00
80258;DHT22;69565;37.974;23.708;2023-05-07T09:42:53;26.30;30.00
80258;DHT22;69565;37.974;23.708;2023-05-07T09:45:25;26.30;30.00
80258;DHT22;69565;37.974;23.708;2023-05-07T09:47:57;26.30;30.00
80258;DHT22;69565;37.974;23.708;2023-05-07T09:50:28;26.20;30.00
80258;DHT22;69565;37.974;23.708;2023-05-07T09:52:56;26.20;30.00
80258;DHT22;69565;37.974;23.708;2023-05-07T09:55:22;26.20;30.00
80258;DHT22;69565;37.974;23.708;2023-05-07T09:57:52;26.20;30.00
80258;DHT22;69565;37.974;23.708;2023-05-07T10:00:22;26.20;30.00
80258;DHT22;69565;37.974;23.708;2023-05-07T10:02:49;26.20;30.00
80258;DHT22;69565;37.974;23.708;2023-05-07T10:05:18;26.20;30.00
80258;DHT22;69565;37.974;23.708;2023-05-07T10:07:44;26.20;30.00
80258;DHT22;69565;37.974;23.708;2023-05-07T10:10:10;26.20;30.00
80258;DHT22;69565;37.974;23.708;2023-05-07T10:12:36;26.20;30.00
80258;DHT22;69565;37.974;23.708;2023-05-07T10:15:09;26.20;30.00
80258;DHT22;69565;37.974;23.708;2023-05-07T10:17:39;26.20;30.00
80258;DHT22;69565;37.974;23.708;2023-05-07T10:20:07;26.20;30.00
80258;DHT22;69565;37.974;23.708;2023-05-07T10:22:38;26.10;30.00
80258;DHT22;69565;37.974;23.708;2023-05-07T10:25:09;26.20;30.00
80258;DHT22;69565;37.974;23.708;2023-05-07T10:27:39;26.10;30.00
80258;DHT22;69565;37.974;23.708;2023-05-07T10:32:55;26.10;30.00
80258;DHT22;69565;37.974;23.708;2023-05-07T10:35:30;26.10;30.00
80258;DHT22;69565;37.974;23.708;2023-05-07T10:37:57;26.10;30.00
80258;DHT22;69565;37.974;23.708;2023-05-07T10:40:23;26.10;30.00
80258;DHT22;69565;37.974;23.708;2023-05-07T10:43:02;26.10;30.00
80258;DHT22;69565;37.974;23.708;2023-05-07T10:45:30;26.10;30.00
80258;DHT22;69565;37.974;23.708;2023-05-07T10:48:15;26.10;30.00
80258;DHT22;69565;37.974;23.708;2023-05-07T10:50:42;26.10;30.00
80258;DHT22;69565;37.974;23.708;2023-05-07T10:55:48;26.00;30.00
80258;DHT22;69565;37.974;23.708;2023-05-07T10:58:27;26.00;30.00
80258;DHT22;69565;37.974;23.708;2023-05-07T11:00:58;26.10;30.10
80258;DHT22;69565;37.974;23.708;2023-05-07T11:03:25;26.00;30.00
80258;DHT22;69565;37.974;23.708;2023-05-07T11:06:14;26.00;30.00
80258;DHT22;69565;37.974;23.708;2023-05-07T11:11:18;26.10;30.00
80258;DHT22;69565;37.974;23.708;2023-05-07T11:13:48;26.00;30.00
80258;DHT22;69565;37.974;23.708;2023-05-07T11:16:24;26.00;30.00
80258;DHT22;69565;37.974;23.708;2023-05-07T11:18:56;26.00;30.00
80258;DHT22;69565;37.974;23.708;2023-05-07T11:21:35;26.00;30.00
80258;DHT22;69565;37.974;23.708;2023-05-07T11:24:02;26.00;30.00
80258;DHT22;69565;37.974;23.708;2023-05-07T11:26:31;26.00;30.00
80258;DHT22;69565;37.974;23.708;2023-05-07T11:29:11;26.00;30.00
80258;DHT22;69565;37.974;23.708;2023-05-07T11:31:37;26.00;30.00
80258;DHT22;69565;37.974;23.708;2023-05-07T11:34:04;26.00;30.00
80258;DHT22;69565;37.974;23.708;2023-05-07T11:36:32;26.00;30.00
80258;DHT22;69565;37.974;23.708;2023-05-07T11:38:58;26.00;30.10
80258;DHT22;69565;37.974;23.708;2023-05-07T11:41:34;25.90;30.00
80258;DHT22;69565;37.974;23.708;2023-05-07T11:44:00;26.00;30.00
80258;DHT22;69565;37.974;23.708;2023-05-07T11:46:27;25.90;30.10
80258;DHT22;69565;37.974;23.708;2023-05-07T11:48:53;25.90;30.00
80258;DHT22;69565;37.974;23.708;2023-05-07T11:51:24;26.00;30.10
80258;DHT22;69565;37.974;23.708;2023-05-07T11:53:52;26.00;30.00
80258;DHT22;69565;37.974;23.708;2023-05-07T11:56:18;25.90;30.00
80258;DHT22;69565;37.974;23.708;2023-05-07T11:58:45;25.90;30.10
80258;DHT22;69565;37.974;23.708;2023-05-07T12:01:13;25.90;30.00
80258;DHT22;69565;37.974;23.708;2023-05-07T12:03:43;25.90;30.00
80258;DHT22;69565;37.974;23.708;2023-05-07T12:06:12;25.90;30.00
80258;DHT22;69565;37.974;23.708;2023-05-07T12:08:39;25.90;30.10
80258;DHT22;69565;37.974;23.708;2023-05-07T12:11:13;25.90;30.00
80258;DHT22;69565;37.974;23.708;2023-05-07T12:13:39;25.90;30.00
80258;DHT22;69565;37.974;23.708;2023-05-07T12:16:06;25.80;30.00
80258;DHT22;69565;37.974;23.708;2023-05-07T12:18:33;25.80;30.00
80258;DHT22;69565;37.974;23.708;2023-05-07T12:20:59;25.80;30.00
80258;DHT22;69565;37.974;23.708;2023-05-07T12:23:25;25.80;30.10
80258;DHT22;69565;37.974;23.708;2023-05-07T12:25:51;25.80;30.20
80258;DHT22;69565;37.974;23.708;2023-05-07T12:28:18;25.80;30.20
80258;DHT22;69565;37.974;23.708;2023-05-07T12:30:46;25.80;30.20
80258;DHT22;69565;37.974;23.708;2023-05-07T12:33:14;25.80;30.10
80258;DHT22;69565;37.974;23.708;2023-05-07T12:35:42;25.80;30.10
80258;DHT22;69565;37.974;23.708;2023-05-07T12:38:17;25.80;30.20
80258;DHT22;69565;37.974;23.708;2023-05-07T12:40:48;25.80;30.20
80258;DHT22;69565;37.974;23.708;2023-05-07T12:43:27;25.80;30.20
80258;DHT22;69565;37.974;23.708;2023-05-07T12:45:57;25.80;30.20
80258;DHT22;69565;37.974;23.708;2023-05-07T12:48:25;25.80;30.20
80258;DHT22;69565;37.974;23.708;2023-05-07T12:50:56;25.80;30.30
80258;DHT22;69565;37.974;23.708;2023-05-07T12:53:24;25.70;30.20
80258;DHT22;69565;37.974;23.708;2023-05-07T12:55:53;25.70;30.10
80258;DHT22;69565;37.974;23.708;2023-05-07T12:58:31;25.70;30.20
80258;DHT22;69565;37.974;23.708;2023-05-07T13:01:00;25.70;30.10
80258;DHT22;69565;37.974;23.708;2023-05-07T13:03:29;25.70;30.20
80258;DHT22;69565;37.974;23.708;2023-05-07T13:05:58;25.70;30.20
80258;DHT22;69565;37.974;23.708;2023-05-07T13:08:26;25.70;30.20
80258;DHT22;69565;37.974;23.708;2023-05-07T13:10:52;25.70;30.20
80258;DHT22;69565;37.974;23.708;2023-05-07T13:13:19;25.70;30.20
80258;DHT22;69565;37.974;23.708;2023-05-07T13:15:46;25.70;30.20
80258;DHT22;69565;37.974;23.708;2023-05-07T13:18:11;25.70;30.20
80258;DHT22;69565;37.974;23.708;2023-05-07T13:20:37;25.70;30.20
80258;DHT22;69565;37.974;23.708;2023-05-07T13:23:03;25.70;30.20
80258;DHT22;69565;37.974;23.708;2023-05-07T13:25:30;25.70;30.10
80258;DHT22;69565;37.974;23.708;2023-05-07T13:27:59;25.60;30.10
80258;DHT22;69565;37.974;23.708;2023-05-07T13:30:24;25.70;30.20
80258;DHT22;69565;37.974;23.708;2023-05-07T13:32:52;25.60;30.10
80258;DHT22;69565;37.974;23.708;2023-05-07T13:35:17;25.60;30.10
80258;DHT22;69565;37.974;23.708;2023-05-07T13:37:43;25.60;30.10
80258;DHT22;69565;37.974;23.708;2023-05-07T13:40:09;25.60;30.10
80258;DHT22;69565;37.974;23.708;2023-05-07T13:42:35;25.60;30.10
80258;DHT22;69565;37.974;23.708;2023-05-07T13:45:01;25.60;30.10
80258;DHT22;69565;37.974;23.708;2023-05-07T13:47:29;25.60;30.10
80258;DHT22;69565;37.974;23.708;2023-05-07T13:49:55;25.60;30.20
80258;DHT22;69565;37.974;23.708;2023-05-07T13:52:20;25.60;30.10
80258;DHT22;69565;37.974;23.708;2023-05-07T13:54:46;25.60;30.10
80258;DHT22;69565;37.974;23.708;2023-05-07T13:57:12;25.60;30.10
80258;DHT22;69565;37.974;23.708;2023-05-07T13:59:37;25.60;30.10
80258;DHT22;69565;37.974;23.708;2023-05-07T14:02:03;25.60;30.10
80258;DHT22;69565;37.974;23.708;2023-05-07T14:04:30;25.60;30.10
80258;DHT22;69565;37.974;23.708;2023-05-07T14:06:56;25.60;30.10
80258;DHT22;69565;37.974;23.708;2023-05-07T14:09:22;25.60;30.10
80258;DHT22;69565;37.974;23.708;2023-05-07T14:11:47;25.60;30.10
80258;DHT22;69565;37.974;23.708;2023-05-07T14:14:17;25.60;30.10
80258;DHT22;69565;37.974;23.708;2023-05-07T14:16:42;25.60;30.10
80258;DHT22;69565;37.974;23.708;2023-05-07T14:19:08;25.60;30.10
80258;DHT22;69565;37.974;23.708;2023-05-07T14:21:34;25.60;30.10
80258;DHT22;69565;37.974;23.708;2023-05-07T14:23:59;25.60;30.10
80258;DHT22;69565;37.974;23.708;2023-05-07T14:26:25;25.60;30.20
80258;DHT22;69565;37.974;23.708;2023-05-07T14:28:52;25.50;30.10
80258;DHT22;69565;37.974;23.708;2023-05-07T14:31:20;25.50;31.10
80258;DHT22;69565;37.974;23.708;2023-05-07T14:33:46;25.50;30.00
80258;DHT22;69565;37.974;23.708;2023-05-07T14:36:12;25.50;30.10
80258;DHT22;69565;37.974;23.708;2023-05-07T14:38:38;25.50;30.10
80258;DHT22;69565;37.974;23.708;2023-05-07T14:41:03;25.50;30.10
80258;DHT22;69565;37.974;23.708;2023-05-07T14:43:29;25.50;30.10
80258;DHT22;69565;37.974;23.708;2023-05-07T14:45:55;25.40;30.10
80258;DHT22;69565;37.974;23.708;2023-05-07T14:48:21;25.50;30.10
80258;DHT22;69565;37.974;23.708;2023-05-07T14:50:47;25.50;30.10
80258;DHT22;69565;37.974;23.708;2023-05-07T14:53:13;25.50;30.10
80258;DHT22;69565;37.974;23.708;2023-05-07T14:55:39;25.50;30.10
80258;DHT22;69565;37.974;23.708;2023-05-07T14:58:05;25.50;30.10
80258;DHT22;69565;37.974;23.708;2023-05-07T15:00:31;25.40;30.00
80258;DHT22;69565;37.974;23.708;2023-05-07T15:03:10;25.50;30.10
80258;DHT22;69565;37.974;23.708;2023-05-07T15:05:37;25.50;30.10
80258;DHT22;69565;37.974;23.708;2023-05-07T15:08:03;25.40;30.00
80258;DHT22;69565;37.974;23.708;2023-05-07T15:10:29;25.40;30.00
80258;DHT22;69565;37.974;23.708;2023-05-07T15:12:54;25.40;30.00
80258;DHT22;69565;37.974;23.708;2023-05-07T15:15:20;25.40;30.00
80258;DHT22;69565;37.974;23.708;2023-05-07T15:17:46;25.40;30.00
80258;DHT22;69565;37.974;23.708;2023-05-07T15:20:11;25.40;30.00
80258;DHT22;69565;37.974;23.708;2023-05-07T15:22:37;25.40;30.00
80258;DHT22;69565;37.974;23.708;2023-05-07T15:25:04;25.40;30.00